createdAt,value
2022-10-21T00:01:00.969Z,82.52
2022-10-21T00:03:28.304Z,82.90
2022-10-21T00:05:56.776Z,83.36
2022-10-21T00:08:24.687Z,83.48
2022-10-21T00:10:59.055Z,83.79
2022-10-21T00:13:29.500Z,83.47
2022-10-21T00:16:09.996Z,82.77
2022-10-21T00:18:39.037Z,82.70
2022-10-21T00:21:13.600Z,83.08
2022-10-21T00:23:41.542Z,83.08
2022-10-21T00:26:08.779Z,82.75
2022-10-21T00:28:36.386Z,81.82
2022-10-21T00:31:08.697Z,83.08
2022-10-21T00:33:36.308Z,82.78
2022-10-21T00:36:04.665Z,82.27
2022-10-21T00:38:32.793Z,81.54
2022-10-21T00:41:00.941Z,81.53
2022-10-21T00:43:28.899Z,81.48
2022-10-21T00:46:07.954Z,81.21
2022-10-21T00:48:42.399Z,80.64
2022-10-21T00:51:17.944Z,80.83
2022-10-21T00:53:50.074Z,80.12
2022-10-21T00:56:25.663Z,80.73
2022-10-21T00:58:57.288Z,81.06
2022-10-21T01:01:24.598Z,80.27
2022-10-21T01:03:51.864Z,79.60
2022-10-21T01:06:25.677Z,79.65
2022-10-21T01:08:54.870Z,80.22
2022-10-21T01:11:24.085Z,79.15
2022-10-21T01:14:08.032Z,78.96
2022-10-21T01:16:48.245Z,78.93
2022-10-21T01:19:34.013Z,78.93
2022-10-21T01:22:17.045Z,78.93
2022-10-21T01:25:05.451Z,79.28
2022-10-21T01:28:15.395Z,79.63
2022-10-21T01:31:10.097Z,80.88
2022-10-21T01:34:16.941Z,80.22
2022-10-21T01:37:01.803Z,80.88
2022-10-21T01:39:46.178Z,81.50
2022-10-21T01:42:43.521Z,80.54
2022-10-21T01:45:22.469Z,79.85
2022-10-21T01:48:13.321Z,80.08
2022-10-21T01:50:52.149Z,79.81
2022-10-21T01:53:21.866Z,79.62
2022-10-21T01:55:50.725Z,79.52
2022-10-21T01:58:26.936Z,79.83
2022-10-21T02:00:57.550Z,80.32
2022-10-21T02:03:33.205Z,79.25
2022-10-21T02:06:00.576Z,79.25
2022-10-21T02:08:30.276Z,79.45
2022-10-21T02:11:01.457Z,78.69
2022-10-21T02:13:40.801Z,78.77
2022-10-21T02:16:13.310Z,79.08
2022-10-21T02:18:40.719Z,78.46
2022-10-21T02:21:21.319Z,78.29
2022-10-21T02:23:59.991Z,77.95
2022-10-21T02:26:30.912Z,78.65
2022-10-21T02:29:01.393Z,78.32
2022-10-21T02:32:01.357Z,78.86
2022-10-21T02:34:57.777Z,78.85
2022-10-21T02:37:51.149Z,78.13
2022-10-21T02:40:39.383Z,78.30
2022-10-21T02:43:18.979Z,78.96
2022-10-21T02:45:49.884Z,78.67
2022-10-21T02:48:17.251Z,77.99
2022-10-21T02:50:44.410Z,78.10
2022-10-21T02:53:13.407Z,78.72
2022-10-21T02:55:42.772Z,79.96
2022-10-21T02:58:10.137Z,79.50
2022-10-21T03:00:37.413Z,78.53
2022-10-21T03:03:04.722Z,78.82
2022-10-21T03:07:58.990Z,77.64
2022-10-21T03:10:26.258Z,80.23
2022-10-21T03:12:53.797Z,79.39
2022-10-21T03:15:21.002Z,77.81
2022-10-21T03:17:48.456Z,78.38
2022-10-21T03:20:16.206Z,79.33
2022-10-21T03:22:44.280Z,79.32
2022-10-21T03:25:11.966Z,79.04
2022-10-21T03:27:39.910Z,79.74
2022-10-21T03:30:08.702Z,79.08
2022-10-21T03:32:36.140Z,79.70
2022-10-21T03:35:03.933Z,78.90
2022-10-21T03:37:30.998Z,77.96
2022-10-21T03:39:58.009Z,78.03
2022-10-21T03:42:25.308Z,78.50
2022-10-21T03:44:52.379Z,79.25
2022-10-21T03:47:19.602Z,79.25
2022-10-21T03:49:46.716Z,78.83
2022-10-21T03:52:13.933Z,78.22
2022-10-21T03:54:41.213Z,78.32
2022-10-21T03:57:08.584Z,78.45
2022-10-21T03:59:38.201Z,78.80
2022-10-21T04:02:05.436Z,79.02
2022-10-21T04:04:33.617Z,79.59
2022-10-21T04:07:03.262Z,80.43
2022-10-21T04:09:30.404Z,78.96
2022-10-21T04:11:57.572Z,79.52
2022-10-21T04:14:24.661Z,78.83
2022-10-21T04:17:02.153Z,79.09
2022-10-21T04:19:29.777Z,79.47
2022-10-21T04:21:56.802Z,79.80
2022-10-21T04:24:24.027Z,79.91
2022-10-21T04:26:51.123Z,80.38
2022-10-21T04:29:18.188Z,79.60
2022-10-21T04:31:45.294Z,80.68
2022-10-21T04:34:12.676Z,80.06
2022-10-21T04:36:39.777Z,81.94
2022-10-21T04:39:07.078Z,81.57
2022-10-21T04:41:34.315Z,80.98
2022-10-21T04:44:03.443Z,81.44
2022-10-21T04:46:30.674Z,80.70
2022-10-21T04:48:57.787Z,82.14
2022-10-21T04:51:25.254Z,81.56
2022-10-21T04:53:52.347Z,81.54
2022-10-21T04:56:19.569Z,81.64
2022-10-21T04:58:46.620Z,83.20
2022-10-21T05:01:13.814Z,83.11
2022-10-21T05:03:41.153Z,82.99
2022-10-21T05:06:08.224Z,81.44
2022-10-21T05:08:35.465Z,81.21
2022-10-21T05:11:05.048Z,81.80
2022-10-21T05:13:42.467Z,81.95
2022-10-21T05:16:12.064Z,82.83
2022-10-21T05:18:46.730Z,81.31
2022-10-21T05:21:13.909Z,82.61
2022-10-21T05:23:41.261Z,81.87
2022-10-21T05:26:09.095Z,83.14
2022-10-21T05:28:36.715Z,81.10
2022-10-21T05:31:06.212Z,80.90
2022-10-21T05:33:33.552Z,79.95
2022-10-21T05:36:07.606Z,81.47
2022-10-21T05:38:38.341Z,81.37
2022-10-21T05:41:05.740Z,81.63
2022-10-21T05:43:32.866Z,82.17
2022-10-21T05:46:00.321Z,81.74
2022-10-21T05:48:27.425Z,81.99
2022-10-21T05:50:58.460Z,80.84
2022-10-21T05:53:26.019Z,80.97
2022-10-21T05:56:03.051Z,80.40
2022-10-21T05:58:34.610Z,81.01
2022-10-21T06:01:02.504Z,80.53
2022-10-21T06:03:32.573Z,79.81
2022-10-21T06:06:03.666Z,81.07
2022-10-21T06:08:33.393Z,82.47
2022-10-21T06:11:11.637Z,82.33
2022-10-21T06:13:39.858Z,81.97
2022-10-21T06:16:08.039Z,80.41
2022-10-21T06:18:35.450Z,79.70
2022-10-21T06:21:08.384Z,80.77
2022-10-21T06:23:36.434Z,80.56
2022-10-21T06:26:10.785Z,78.64
2022-10-21T06:28:40.797Z,79.74
2022-10-21T06:31:12.502Z,79.83
2022-10-21T06:33:42.473Z,79.03
2022-10-21T06:36:11.801Z,80.28
2022-10-21T06:38:38.884Z,79.41
2022-10-21T06:41:13.760Z,78.87
2022-10-21T06:43:42.397Z,79.44
2022-10-21T06:46:13.167Z,79.09
2022-10-21T06:48:40.890Z,78.58
2022-10-21T06:51:15.088Z,78.85
2022-10-21T06:53:43.896Z,79.63
2022-10-21T06:56:16.469Z,78.56
2022-10-21T06:58:49.071Z,78.73
2022-10-21T07:01:33.595Z,78.31
2022-10-21T07:04:06.251Z,78.87
2022-10-21T07:06:36.042Z,77.86
2022-10-21T07:09:08.693Z,77.86
2022-10-21T07:11:36.448Z,77.74
2022-10-21T07:14:04.036Z,80.32
2022-10-21T07:16:34.899Z,77.81
2022-10-21T07:19:02.098Z,77.97
2022-10-21T07:21:31.530Z,77.06
2022-10-21T07:24:00.144Z,77.13
2022-10-21T07:26:34.859Z,76.13
2022-10-21T07:29:02.617Z,77.25
2022-10-21T07:31:33.928Z,76.45
2022-10-21T07:36:34.066Z,77.51
2022-10-21T07:39:09.212Z,75.89
2022-10-21T07:41:45.861Z,74.79
2022-10-21T07:44:13.335Z,74.60
2022-10-21T07:46:44.815Z,74.41
2022-10-21T07:49:13.601Z,72.90
2022-10-21T07:51:40.964Z,73.23
2022-10-21T07:54:09.355Z,72.33
2022-10-21T07:56:43.517Z,73.67
2022-10-21T07:59:13.471Z,73.61
2022-10-21T08:01:44.762Z,72.37
2022-10-21T08:04:18.368Z,70.94
2022-10-21T08:06:47.150Z,70.57
2022-10-21T08:09:16.222Z,70.96
2022-10-21T08:11:43.756Z,72.05
2022-10-21T08:14:11.911Z,70.88
2022-10-21T08:16:40.040Z,72.51
2022-10-21T08:19:09.101Z,71.47
2022-10-21T08:21:37.798Z,71.84
2022-10-21T08:24:05.804Z,72.00
2022-10-21T08:26:33.213Z,71.73
2022-10-21T08:29:02.410Z,72.82
2022-10-21T08:31:29.491Z,71.11
2022-10-21T08:33:56.654Z,71.03
2022-10-21T08:36:28.472Z,70.64
2022-10-21T08:39:03.099Z,70.70
2022-10-21T08:41:30.058Z,71.78
2022-10-21T08:44:29.563Z,70.99
2022-10-21T08:47:25.592Z,74.25
2022-10-21T08:49:58.884Z,75.83
2022-10-21T08:52:53.230Z,76.75
2022-10-21T08:55:31.763Z,77.44
2022-10-21T08:58:01.149Z,76.72
2022-10-21T09:00:40.199Z,76.02
2022-10-21T09:03:54.673Z,76.10
2022-10-21T09:06:39.433Z,76.41
2022-10-21T09:09:34.852Z,76.27
2022-10-21T09:12:31.996Z,76.88
2022-10-21T09:15:34.260Z,76.39
2022-10-21T09:18:13.010Z,76.34
2022-10-21T09:21:31.324Z,75.29
2022-10-21T09:24:42.038Z,74.61
2022-10-21T09:27:10.795Z,74.36
2022-10-21T09:29:44.842Z,74.28
2022-10-21T09:35:20.920Z,74.38
2022-10-21T09:38:05.541Z,75.59
2022-10-21T09:40:34.060Z,76.74
2022-10-21T09:43:03.027Z,77.23
2022-10-21T09:45:43.822Z,75.77
2022-10-21T09:48:20.122Z,75.99
2022-10-21T09:50:59.464Z,75.62
2022-10-21T09:53:53.639Z,76.01
2022-10-21T09:56:34.105Z,75.07
2022-10-21T09:59:07.828Z,74.22
2022-10-21T10:01:37.534Z,73.34
2022-10-21T10:04:31.022Z,74.71
2022-10-21T10:07:19.268Z,74.54
2022-10-21T10:09:48.228Z,75.77
2022-10-21T10:12:22.841Z,74.75
2022-10-21T10:14:50.469Z,74.66
2022-10-21T10:17:31.131Z,74.30
2022-10-21T10:20:14.787Z,73.36
2022-10-21T10:22:44.227Z,73.05
2022-10-21T10:25:18.034Z,74.43
2022-10-21T10:28:16.359Z,72.67
2022-10-21T10:30:45.335Z,71.98
2022-10-21T10:33:31.457Z,72.11
2022-10-21T10:36:05.320Z,71.05
2022-10-21T10:38:35.374Z,71.20
2022-10-21T10:41:20.713Z,70.16
2022-10-21T10:43:58.629Z,70.19
2022-10-21T10:46:30.896Z,70.11
2022-10-21T10:49:06.746Z,69.81
2022-10-21T10:51:35.900Z,69.45
2022-10-21T10:54:27.275Z,71.10
2022-10-21T10:57:20.220Z,70.48
2022-10-21T10:59:49.223Z,69.02
2022-10-21T11:02:42.080Z,68.26
2022-10-21T11:06:03.377Z,67.70
2022-10-21T11:08:55.629Z,67.21
2022-10-21T11:11:35.111Z,66.82
2022-10-21T11:14:02.460Z,66.46
2022-10-21T11:17:01.254Z,65.71
2022-10-21T11:20:00.554Z,65.03
2022-10-21T11:25:45.752Z,65.12
2022-10-21T11:28:36.223Z,67.24
2022-10-21T11:31:24.949Z,67.31
2022-10-21T11:34:36.213Z,66.93
2022-10-21T11:37:31.555Z,65.38
2022-10-21T11:40:37.755Z,65.18
2022-10-21T11:43:28.654Z,64.52
2022-10-21T11:46:11.917Z,66.28
2022-10-21T11:49:03.901Z,65.36
2022-10-21T11:51:47.601Z,65.20
2022-10-21T11:55:07.958Z,64.70
2022-10-21T11:58:02.398Z,65.59
2022-10-21T12:00:49.696Z,63.65
2022-10-21T12:03:51.567Z,63.23
2022-10-21T12:06:34.952Z,65.15
2022-10-21T12:09:26.767Z,64.92
2022-10-21T12:12:21.727Z,63.90
2022-10-21T12:15:04.584Z,64.46
2022-10-21T12:20:27.365Z,64.75
2022-10-21T12:23:04.759Z,65.48
2022-10-21T12:26:04.388Z,63.95
2022-10-21T12:29:23.420Z,66.01
2022-10-21T12:32:18.279Z,64.25
2022-10-21T12:34:46.280Z,65.67
2022-10-21T12:37:46.680Z,65.49
2022-10-21T12:40:39.623Z,65.95
2022-10-21T12:43:28.832Z,65.29
2022-10-21T12:46:09.113Z,65.61
2022-10-21T12:48:43.620Z,65.63
2022-10-21T12:51:49.619Z,64.32
2022-10-21T12:54:24.323Z,64.75
2022-10-21T12:57:03.108Z,65.57
2022-10-21T12:59:37.917Z,65.69
2022-10-21T13:02:23.915Z,65.06
2022-10-21T13:05:08.875Z,64.36
2022-10-21T13:07:36.868Z,64.75
2022-10-21T13:10:08.111Z,66.06
2022-10-21T13:12:35.372Z,64.51
2022-10-21T13:15:20.699Z,64.16
2022-10-21T13:17:54.506Z,64.95
2022-10-21T13:20:21.476Z,64.96
2022-10-21T13:23:01.928Z,66.24
2022-10-21T13:25:37.181Z,64.69
2022-10-21T13:28:13.290Z,64.95
2022-10-21T13:31:01.841Z,65.00
2022-10-21T13:33:38.983Z,64.77
2022-10-21T13:36:14.155Z,65.71
2022-10-21T13:38:54.626Z,66.20
2022-10-21T13:41:34.013Z,66.21
2022-10-21T13:44:07.286Z,67.53
2022-10-21T13:46:43.841Z,66.82
2022-10-21T13:49:33.673Z,68.60
2022-10-21T13:52:00.716Z,68.51
2022-10-21T13:54:35.268Z,68.52
2022-10-21T13:57:07.941Z,68.14
2022-10-21T13:59:37.585Z,68.72
2022-10-21T14:02:05.288Z,69.44
2022-10-21T14:04:39.439Z,70.16
2022-10-21T14:07:11.260Z,70.11
2022-10-21T14:09:49.286Z,70.93
2022-10-21T14:12:34.781Z,69.77
2022-10-21T14:15:43.269Z,69.20
2022-10-21T14:18:33.579Z,68.92
2022-10-21T14:21:05.648Z,68.23
2022-10-21T14:23:33.828Z,68.08
2022-10-21T14:26:09.230Z,68.20
2022-10-21T14:28:38.010Z,67.32
2022-10-21T14:31:12.181Z,68.60
2022-10-21T14:33:45.067Z,69.76
2022-10-21T14:36:20.598Z,68.52
2022-10-21T14:38:50.430Z,68.55
2022-10-21T14:41:26.745Z,69.46
2022-10-21T14:43:59.776Z,69.98
2022-10-21T14:46:31.476Z,70.87
2022-10-21T14:49:03.460Z,69.70
2022-10-21T14:51:37.665Z,69.32
2022-10-21T14:54:07.432Z,70.44
2022-10-21T14:56:43.328Z,70.26
2022-10-21T14:59:44.560Z,69.99
2022-10-21T15:02:27.164Z,70.00
2022-10-21T15:05:23.808Z,70.78
2022-10-21T15:07:50.899Z,70.81
2022-10-21T15:10:20.603Z,70.03
2022-10-21T15:12:52.868Z,70.68
2022-10-21T15:15:41.162Z,71.42
2022-10-21T15:18:28.504Z,71.30
2022-10-21T15:21:45.666Z,72.41
2022-10-21T15:24:32.766Z,71.95
2022-10-21T15:27:01.254Z,72.54
2022-10-21T15:29:40.366Z,72.16
2022-10-21T15:32:07.558Z,71.94
2022-10-21T15:34:34.715Z,70.96
2022-10-21T15:37:01.960Z,71.88
2022-10-21T15:39:31.662Z,70.99
2022-10-21T15:42:01.615Z,72.25
2022-10-21T15:44:34.559Z,72.52
2022-10-21T15:47:05.605Z,71.73
2022-10-21T15:49:43.461Z,72.58
2022-10-21T15:52:13.081Z,71.96
2022-10-21T15:54:40.696Z,72.49
2022-10-21T15:57:22.177Z,71.47
2022-10-21T15:59:49.416Z,71.00
2022-10-21T16:02:20.094Z,70.87
2022-10-21T16:04:47.243Z,72.07
2022-10-21T16:07:34.671Z,71.72
2022-10-21T16:10:03.720Z,71.85
2022-10-21T16:12:31.309Z,70.91
2022-10-21T16:14:58.429Z,72.17
2022-10-21T16:17:28.652Z,71.26
2022-10-21T16:19:55.775Z,71.55
2022-10-21T16:22:23.129Z,69.93
2022-10-21T16:24:50.162Z,70.12
2022-10-21T16:27:26.602Z,69.89
2022-10-21T16:30:17.147Z,71.05
2022-10-21T16:32:44.526Z,72.63
2022-10-21T16:35:16.365Z,71.70
2022-10-21T16:37:44.316Z,72.28
2022-10-21T16:40:19.037Z,72.23
2022-10-21T16:42:46.229Z,72.43
2022-10-21T16:45:14.417Z,72.47
2022-10-21T16:47:52.967Z,72.76
2022-10-21T16:50:45.297Z,73.72
2022-10-21T16:53:13.817Z,73.88
2022-10-21T16:55:41.217Z,74.61
2022-10-21T16:58:08.499Z,73.89
2022-10-21T17:00:36.282Z,74.78
2022-10-21T17:03:04.253Z,74.57
2022-10-21T17:08:06.233Z,74.59
2022-10-21T17:10:33.403Z,74.28
2022-10-21T17:13:01.663Z,74.14
2022-10-21T17:15:29.141Z,75.24
2022-10-21T17:17:56.755Z,74.98
2022-10-21T17:20:24.089Z,74.25
2022-10-21T17:22:51.124Z,74.60
2022-10-21T17:25:18.571Z,74.07
2022-10-21T17:27:45.724Z,74.63
2022-10-21T17:30:12.816Z,75.53
2022-10-21T17:32:39.885Z,74.27
2022-10-21T17:35:07.608Z,74.52
2022-10-21T17:37:34.695Z,74.27
2022-10-21T17:40:01.842Z,75.28
2022-10-21T17:42:28.903Z,76.25
2022-10-21T17:44:58.710Z,76.12
2022-10-21T17:47:25.990Z,75.81
2022-10-21T17:49:53.099Z,75.86
2022-10-21T17:52:20.215Z,75.61
2022-10-21T17:54:47.336Z,75.92
2022-10-21T17:57:15.179Z,76.24
2022-10-21T17:59:42.799Z,76.81
2022-10-21T18:02:10.259Z,77.44
2022-10-21T18:04:37.979Z,77.02
2022-10-21T18:07:08.704Z,77.04
2022-10-21T18:09:37.338Z,76.97
2022-10-21T18:12:09.476Z,76.41
2022-10-21T18:14:37.101Z,76.99
2022-10-21T18:17:04.575Z,77.99
2022-10-21T18:19:31.756Z,78.33
2022-10-21T18:22:01.298Z,78.42
2022-10-21T18:24:28.551Z,79.16
2022-10-21T18:26:58.147Z,80.18
2022-10-21T18:29:25.340Z,80.13
2022-10-21T18:31:56.451Z,80.76
2022-10-21T18:34:27.137Z,78.58
2022-10-21T18:36:54.270Z,78.79
2022-10-21T18:39:21.594Z,78.66
2022-10-21T18:41:48.642Z,79.03
2022-10-21T18:44:15.860Z,80.04
2022-10-21T18:46:43.682Z,78.92
2022-10-21T18:49:16.027Z,79.36
2022-10-21T18:51:43.110Z,78.25
2022-10-21T18:54:12.644Z,79.11
2022-10-21T18:56:41.170Z,78.72
2022-10-21T18:59:10.798Z,78.66
2022-10-21T19:01:39.725Z,78.41
2022-10-21T19:04:07.276Z,79.01
2022-10-21T19:06:45.451Z,78.75
2022-10-21T19:09:20.386Z,79.05
2022-10-21T19:11:47.798Z,79.51
2022-10-21T19:14:16.402Z,79.55
2022-10-21T19:16:45.197Z,78.87
2022-10-21T19:19:13.402Z,79.24
2022-10-21T19:21:40.732Z,78.29
2022-10-21T19:24:08.549Z,78.47
2022-10-21T19:26:38.166Z,77.77
2022-10-21T19:29:17.832Z,77.73
2022-10-21T19:34:21.794Z,76.64
2022-10-21T19:36:50.137Z,76.63
2022-10-21T19:39:17.466Z,77.38
2022-10-21T19:41:47.492Z,76.52
2022-10-21T19:44:14.972Z,76.29
2022-10-21T19:46:46.873Z,77.06
2022-10-21T19:49:15.207Z,76.34
2022-10-21T19:51:42.308Z,75.84
2022-10-21T19:54:33.314Z,74.68
2022-10-21T19:57:04.991Z,75.85
2022-10-21T19:59:35.934Z,76.67
2022-10-21T20:02:06.655Z,76.05
2022-10-21T20:04:35.324Z,75.78
2022-10-21T20:07:03.605Z,75.51
2022-10-21T20:09:32.814Z,75.73
2022-10-21T20:12:02.892Z,76.08
2022-10-21T20:14:30.034Z,76.35
2022-10-21T20:16:57.138Z,76.46
2022-10-21T20:19:24.310Z,77.26
2022-10-21T20:21:51.402Z,76.73
2022-10-21T20:24:20.882Z,76.84
2022-10-21T20:26:51.375Z,77.33
2022-10-21T20:29:20.770Z,77.81
2022-10-21T20:31:52.077Z,76.10
2022-10-21T20:34:19.312Z,76.21
2022-10-21T20:36:46.431Z,75.22
2022-10-21T20:39:13.805Z,74.82
2022-10-21T20:41:41.440Z,75.30
2022-10-21T20:44:18.278Z,75.69
2022-10-21T20:46:46.517Z,75.19
2022-10-21T20:49:16.005Z,75.00
2022-10-21T20:51:43.421Z,74.30
2022-10-21T20:54:15.866Z,75.26
2022-10-21T20:56:43.435Z,74.24
2022-10-21T20:59:15.567Z,74.86
2022-10-21T21:01:46.147Z,75.16
2022-10-21T21:04:16.508Z,74.50
2022-10-21T21:06:49.812Z,73.71
2022-10-21T21:12:08.283Z,73.50
2022-10-21T21:14:35.799Z,74.24
2022-10-21T21:17:06.225Z,75.18
2022-10-21T21:19:35.949Z,74.32
2022-10-21T21:22:05.080Z,73.55
2022-10-21T21:24:32.662Z,73.94
2022-10-21T21:26:59.778Z,73.95
2022-10-21T21:29:43.357Z,73.80
2022-10-21T21:32:10.637Z,75.64
2022-10-21T21:34:40.990Z,74.10
2022-10-21T21:37:11.416Z,76.58
2022-10-21T21:39:38.505Z,75.97
2022-10-21T21:42:08.579Z,76.28
2022-10-21T21:44:38.092Z,76.63
2022-10-21T21:47:05.309Z,76.23
2022-10-21T21:49:32.573Z,75.61
2022-10-21T21:52:02.294Z,75.54
2022-10-21T21:54:29.433Z,76.07
2022-10-21T21:57:26.425Z,75.89
2022-10-21T21:59:48.781Z,76.26
2022-10-21T22:02:15.843Z,76.47
2022-10-21T22:04:46.023Z,77.68
2022-10-21T22:07:13.506Z,77.73
2022-10-21T22:09:40.787Z,78.69
2022-10-21T22:12:08.730Z,77.84
2022-10-21T22:14:42.803Z,77.97
2022-10-21T22:17:09.965Z,79.07
2022-10-21T22:19:39.446Z,78.51
2022-10-21T22:22:09.013Z,78.00
2022-10-21T22:24:36.376Z,77.86
2022-10-21T22:27:05.922Z,77.09
2022-10-21T22:29:32.992Z,77.04
2022-10-21T22:32:00.454Z,77.41
2022-10-21T22:34:27.693Z,76.71
2022-10-21T22:36:54.809Z,77.76
2022-10-21T22:39:21.869Z,78.58
2022-10-21T22:41:51.414Z,78.64
2022-10-21T22:44:22.100Z,77.79
2022-10-21T22:46:54.498Z,79.61
2022-10-21T22:49:21.642Z,79.28
2022-10-21T22:54:43.260Z,79.08
2022-10-21T22:57:10.294Z,81.22
2022-10-21T22:59:38.124Z,79.49
2022-10-21T23:02:05.498Z,78.99
2022-10-21T23:04:32.696Z,78.21
2022-10-21T23:06:59.820Z,78.45
2022-10-21T23:09:26.954Z,79.01
2022-10-21T23:11:54.004Z,80.26
2022-10-21T23:14:21.575Z,79.05
2022-10-21T23:16:48.779Z,77.93
2022-10-21T23:19:15.932Z,78.13
2022-10-21T23:21:43.091Z,78.38
2022-10-21T23:24:13.223Z,78.45
2022-10-21T23:26:40.432Z,77.22
2022-10-21T23:29:07.679Z,76.60
2022-10-21T23:31:34.832Z,76.81
2022-10-21T23:34:02.915Z,76.33
2022-10-21T23:36:30.114Z,75.71
2022-10-21T23:38:57.688Z,75.50
2022-10-21T23:41:25.148Z,75.33
2022-10-21T23:43:52.436Z,74.91
2022-10-21T23:46:24.398Z,74.80
2022-10-21T23:48:51.595Z,75.01
2022-10-21T23:51:19.387Z,74.65
2022-10-21T23:53:46.984Z,74.70
2022-10-21T23:56:14.299Z,74.46
2022-10-21T23:58:41.572Z,74.53
